sensor_id;sensor_type;location;lat;lon;timestamp;P1;durP1;ratioP1;P2;durP2;ratioP2
19828;SDS011;10075;50.924;4.396;2023-02-28T00:00:00;10.97;;;5.43;;
19828;SDS011;10075;50.924;4.396;2023-02-28T00:02:34;9.53;;;5.70;;
19828;SDS011;10075;50.924;4.396;2023-02-28T00:05:01;9.50;;;5.10;;
19828;SDS011;10075;50.924;4.396;2023-02-28T00:07:28;11.27;;;5.23;;
19828;SDS011;10075;50.924;4.396;2023-02-28T00:09:56;7.67;;;5.17;;
19828;SDS011;10075;50.924;4.396;2023-02-28T00:12:24;11.87;;;5.10;;
19828;SDS011;10075;50.924;4.396;2023-02-28T00:14:51;9.33;;;6.20;;
19828;SDS011;10075;50.924;4.396;2023-02-28T00:17:18;8.17;;;5.97;;
19828;SDS011;10075;50.924;4.396;2023-02-28T00:19:46;8.30;;;5.30;;
19828;SDS011;10075;50.924;4.396;2023-02-28T00:22:14;9.27;;;5.40;;
19828;SDS011;10075;50.924;4.396;2023-02-28T00:24:41;8.30;;;5.40;;
19828;SDS011;10075;50.924;4.396;2023-02-28T00:27:10;9.30;;;5.77;;
19828;SDS011;10075;50.924;4.396;2023-02-28T00:29:37;10.43;;;6.30;;
19828;SDS011;10075;50.924;4.396;2023-02-28T00:32:04;11.27;;;6.40;;
19828;SDS011;10075;50.924;4.396;2023-02-28T00:34:32;13.33;;;6.10;;
19828;SDS011;10075;50.924;4.396;2023-02-28T00:37:02;7.57;;;5.77;;
19828;SDS011;10075;50.924;4.396;2023-02-28T00:39:30;7.63;;;5.70;;
19828;SDS011;10075;50.924;4.396;2023-02-28T00:41:59;12.30;;;6.50;;
19828;SDS011;10075;50.924;4.396;2023-02-28T00:44:27;10.83;;;6.07;;
19828;SDS011;10075;50.924;4.396;2023-02-28T00:46:54;9.67;;;6.23;;
19828;SDS011;10075;50.924;4.396;2023-02-28T00:49:21;10.43;;;6.50;;
19828;SDS011;10075;50.924;4.396;2023-02-28T00:51:49;11.33;;;7.27;;
19828;SDS011;10075;50.924;4.396;2023-02-28T00:54:17;7.93;;;6.20;;
19828;SDS011;10075;50.924;4.396;2023-02-28T00:56:45;10.20;;;6.87;;
19828;SDS011;10075;50.924;4.396;2023-02-28T00:59:12;18.93;;;7.33;;
19828;SDS011;10075;50.924;4.396;2023-02-28T01:01:41;11.83;;;7.03;;
19828;SDS011;10075;50.924;4.396;2023-02-28T01:04:08;13.83;;;7.03;;
19828;SDS011;10075;50.924;4.396;2023-02-28T01:06:35;12.73;;;6.93;;
19828;SDS011;10075;50.924;4.396;2023-02-28T01:09:02;9.20;;;6.77;;
19828;SDS011;10075;50.924;4.396;2023-02-28T01:11:30;11.10;;;6.90;;
19828;SDS011;10075;50.924;4.396;2023-02-28T01:13:57;12.80;;;7.00;;
19828;SDS011;10075;50.924;4.396;2023-02-28T01:16:25;13.40;;;8.07;;
19828;SDS011;10075;50.924;4.396;2023-02-28T01:18:54;14.60;;;7.87;;
19828;SDS011;10075;50.924;4.396;2023-02-28T01:21:21;12.03;;;8.07;;
19828;SDS011;10075;50.924;4.396;2023-02-28T01:23:49;10.13;;;7.43;;
19828;SDS011;10075;50.924;4.396;2023-02-28T01:26:17;15.07;;;8.57;;
19828;SDS011;10075;50.924;4.396;2023-02-28T01:28:45;11.23;;;7.70;;
19828;SDS011;10075;50.924;4.396;2023-02-28T01:31:13;13.57;;;8.00;;
19828;SDS011;10075;50.924;4.396;2023-02-28T01:33:40;12.70;;;7.97;;
19828;SDS011;10075;50.924;4.396;2023-02-28T01:36:10;10.90;;;7.73;;
19828;SDS011;10075;50.924;4.396;2023-02-28T01:38:38;10.97;;;7.73;;
19828;SDS011;10075;50.924;4.396;2023-02-28T01:41:05;12.13;;;7.97;;
19828;SDS011;10075;50.924;4.396;2023-02-28T01:43:51;23.17;;;8.63;;
19828;SDS011;10075;50.924;4.396;2023-02-28T01:46:20;14.37;;;7.43;;
19828;SDS011;10075;50.924;4.396;2023-02-28T01:48:48;14.03;;;7.53;;
19828;SDS011;10075;50.924;4.396;2023-02-28T01:51:20;10.20;;;7.83;;
19828;SDS011;10075;50.924;4.396;2023-02-28T01:53:51;11.50;;;7.53;;
19828;SDS011;10075;50.924;4.396;2023-02-28T01:56:22;13.90;;;8.43;;
19828;SDS011;10075;50.924;4.396;2023-02-28T01:58:52;11.97;;;7.90;;
19828;SDS011;10075;50.924;4.396;2023-02-28T02:01:21;13.07;;;7.57;;
19828;SDS011;10075;50.924;4.396;2023-02-28T02:03:49;12.00;;;8.70;;
19828;SDS011;10075;50.924;4.396;2023-02-28T02:06:22;16.00;;;9.40;;
19828;SDS011;10075;50.924;4.396;2023-02-28T02:08:49;10.13;;;8.50;;
19828;SDS011;10075;50.924;4.396;2023-02-28T02:11:17;14.47;;;8.97;;
19828;SDS011;10075;50.924;4.396;2023-02-28T02:13:56;11.60;;;8.17;;
19828;SDS011;10075;50.924;4.396;2023-02-28T02:16:49;12.77;;;8.43;;
19828;SDS011;10075;50.924;4.396;2023-02-28T02:19:45;13.67;;;8.43;;
19828;SDS011;10075;50.924;4.396;2023-02-28T02:22:49;11.40;;;7.60;;
19828;SDS011;10075;50.924;4.396;2023-02-28T02:25:31;13.07;;;8.83;;
19828;SDS011;10075;50.924;4.396;2023-02-28T02:28:12;14.67;;;8.53;;
19828;SDS011;10075;50.924;4.396;2023-02-28T02:34:05;15.90;;;8.40;;
19828;SDS011;10075;50.924;4.396;2023-02-28T02:36:56;15.10;;;9.33;;
19828;SDS011;10075;50.924;4.396;2023-02-28T02:39:35;14.57;;;8.80;;
19828;SDS011;10075;50.924;4.396;2023-02-28T02:42:09;13.77;;;9.10;;
19828;SDS011;10075;50.924;4.396;2023-02-28T02:44:42;19.00;;;9.73;;
19828;SDS011;10075;50.924;4.396;2023-02-28T02:47:15;19.40;;;9.37;;
19828;SDS011;10075;50.924;4.396;2023-02-28T02:49:48;14.50;;;9.17;;
19828;SDS011;10075;50.924;4.396;2023-02-28T02:52:19;13.93;;;8.93;;
19828;SDS011;10075;50.924;4.396;2023-02-28T02:54:50;17.67;;;10.40;;
19828;SDS011;10075;50.924;4.396;2023-02-28T02:57:21;18.17;;;9.77;;
19828;SDS011;10075;50.924;4.396;2023-02-28T02:59:53;14.67;;;10.13;;
19828;SDS011;10075;50.924;4.396;2023-02-28T03:02:22;17.57;;;10.83;;
19828;SDS011;10075;50.924;4.396;2023-02-28T03:04:53;15.80;;;10.57;;
19828;SDS011;10075;50.924;4.396;2023-02-28T03:07:26;16.43;;;10.00;;
19828;SDS011;10075;50.924;4.396;2023-02-28T03:09:54;13.27;;;9.57;;
19828;SDS011;10075;50.924;4.396;2023-02-28T03:12:22;16.30;;;9.67;;
19828;SDS011;10075;50.924;4.396;2023-02-28T03:14:56;15.70;;;10.80;;
19828;SDS011;10075;50.924;4.396;2023-02-28T03:17:35;15.93;;;10.23;;
19828;SDS011;10075;50.924;4.396;2023-02-28T03:20:17;18.07;;;10.90;;
19828;SDS011;10075;50.924;4.396;2023-02-28T03:22:58;16.30;;;11.03;;
19828;SDS011;10075;50.924;4.396;2023-02-28T03:25:37;13.97;;;10.07;;
19828;SDS011;10075;50.924;4.396;2023-02-28T03:28:15;14.90;;;10.03;;
19828;SDS011;10075;50.924;4.396;2023-02-28T03:30:49;15.90;;;10.87;;
19828;SDS011;10075;50.924;4.396;2023-02-28T03:33:21;17.27;;;10.70;;
19828;SDS011;10075;50.924;4.396;2023-02-28T03:35:54;19.13;;;10.07;;
19828;SDS011;10075;50.924;4.396;2023-02-28T03:38:25;18.03;;;10.70;;
19828;SDS011;10075;50.924;4.396;2023-02-28T03:40:57;16.43;;;10.63;;
19828;SDS011;10075;50.924;4.396;2023-02-28T03:43:29;20.27;;;9.80;;
19828;SDS011;10075;50.924;4.396;2023-02-28T03:45:59;13.83;;;9.67;;
19828;SDS011;10075;50.924;4.396;2023-02-28T03:48:31;16.47;;;9.80;;
19828;SDS011;10075;50.924;4.396;2023-02-28T03:51:04;16.40;;;10.53;;
19828;SDS011;10075;50.924;4.396;2023-02-28T03:53:37;14.90;;;9.90;;
19828;SDS011;10075;50.924;4.396;2023-02-28T03:56:09;15.63;;;9.90;;
19828;SDS011;10075;50.924;4.396;2023-02-28T03:58:41;19.50;;;10.77;;
19828;SDS011;10075;50.924;4.396;2023-02-28T04:01:15;17.03;;;10.37;;
19828;SDS011;10075;50.924;4.396;2023-02-28T04:03:46;15.77;;;9.40;;
19828;SDS011;10075;50.924;4.396;2023-02-28T04:06:16;15.07;;;9.50;;
19828;SDS011;10075;50.924;4.396;2023-02-28T04:08:44;20.00;;;10.43;;
19828;SDS011;10075;50.924;4.396;2023-02-28T04:11:15;17.70;;;9.67;;
19828;SDS011;10075;50.924;4.396;2023-02-28T04:13:46;16.53;;;10.17;;
19828;SDS011;10075;50.924;4.396;2023-02-28T04:16:13;17.80;;;10.10;;
19828;SDS011;10075;50.924;4.396;2023-02-28T04:18:40;12.67;;;9.53;;
19828;SDS011;10075;50.924;4.396;2023-02-28T04:21:09;16.13;;;10.03;;
19828;SDS011;10075;50.924;4.396;2023-02-28T04:23:37;16.50;;;10.03;;
19828;SDS011;10075;50.924;4.396;2023-02-28T04:26:04;18.40;;;9.73;;
19828;SDS011;10075;50.924;4.396;2023-02-28T04:28:31;16.40;;;10.30;;
19828;SDS011;10075;50.924;4.396;2023-02-28T04:30:59;21.50;;;10.50;;
19828;SDS011;10075;50.924;4.396;2023-02-28T04:33:29;18.83;;;10.53;;
19828;SDS011;10075;50.924;4.396;2023-02-28T04:35:58;18.20;;;10.57;;
19828;SDS011;10075;50.924;4.396;2023-02-28T04:38:26;15.63;;;10.70;;
19828;SDS011;10075;50.924;4.396;2023-02-28T04:40:56;17.10;;;10.50;;
19828;SDS011;10075;50.924;4.396;2023-02-28T04:43:23;15.73;;;10.80;;
19828;SDS011;10075;50.924;4.396;2023-02-28T04:45:51;22.33;;;11.27;;
19828;SDS011;10075;50.924;4.396;2023-02-28T04:48:19;26.13;;;13.77;;
19828;SDS011;10075;50.924;4.396;2023-02-28T04:50:46;28.70;;;11.90;;
19828;SDS011;10075;50.924;4.396;2023-02-28T04:53:13;30.63;;;11.43;;
19828;SDS011;10075;50.924;4.396;2023-02-28T04:55:40;19.63;;;10.43;;
19828;SDS011;10075;50.924;4.396;2023-02-28T04:58:08;18.33;;;9.30;;
19828;SDS011;10075;50.924;4.396;2023-02-28T05:00:35;21.57;;;10.30;;
19828;SDS011;10075;50.924;4.396;2023-02-28T05:03:02;17.73;;;9.60;;
19828;SDS011;10075;50.924;4.396;2023-02-28T05:05:29;14.20;;;9.10;;
19828;SDS011;10075;50.924;4.396;2023-02-28T05:07:56;16.77;;;9.63;;
19828;SDS011;10075;50.924;4.396;2023-02-28T05:10:23;17.17;;;9.10;;
19828;SDS011;10075;50.924;4.396;2023-02-28T05:12:50;13.10;;;8.97;;
19828;SDS011;10075;50.924;4.396;2023-02-28T05:15:19;16.30;;;9.87;;
19828;SDS011;10075;50.924;4.396;2023-02-28T05:17:45;13.17;;;8.93;;
19828;SDS011;10075;50.924;4.396;2023-02-28T05:20:12;16.87;;;9.27;;
19828;SDS011;10075;50.924;4.396;2023-02-28T05:22:39;19.93;;;10.20;;
19828;SDS011;10075;50.924;4.396;2023-02-28T05:25:08;19.27;;;10.17;;
19828;SDS011;10075;50.924;4.396;2023-02-28T05:27:37;15.10;;;8.40;;
19828;SDS011;10075;50.924;4.396;2023-02-28T05:30:05;16.00;;;9.50;;
19828;SDS011;10075;50.924;4.396;2023-02-28T05:32:36;17.87;;;10.43;;
19828;SDS011;10075;50.924;4.396;2023-02-28T05:35:04;25.13;;;9.83;;
19828;SDS011;10075;50.924;4.396;2023-02-28T05:37:31;20.77;;;9.60;;
19828;SDS011;10075;50.924;4.396;2023-02-28T05:39:58;18.00;;;10.07;;
19828;SDS011;10075;50.924;4.396;2023-02-28T05:42:25;26.00;;;10.30;;
19828;SDS011;10075;50.924;4.396;2023-02-28T05:44:52;26.17;;;9.73;;
19828;SDS011;10075;50.924;4.396;2023-02-28T05:47:19;27.67;;;9.80;;
19828;SDS011;10075;50.924;4.396;2023-02-28T05:49:47;24.00;;;9.50;;
19828;SDS011;10075;50.924;4.396;2023-02-28T05:52:14;18.80;;;9.63;;
19828;SDS011;10075;50.924;4.396;2023-02-28T05:54:41;17.60;;;9.30;;
19828;SDS011;10075;50.924;4.396;2023-02-28T05:57:08;14.43;;;8.90;;
19828;SDS011;10075;50.924;4.396;2023-02-28T05:59:35;22.30;;;9.57;;
19828;SDS011;10075;50.924;4.396;2023-02-28T06:02:04;16.33;;;9.67;;
19828;SDS011;10075;50.924;4.396;2023-02-28T06:04:32;18.23;;;9.17;;
19828;SDS011;10075;50.924;4.396;2023-02-28T06:07:00;35.67;;;12.10;;
19828;SDS011;10075;50.924;4.396;2023-02-28T06:09:28;23.63;;;9.83;;
19828;SDS011;10075;50.924;4.396;2023-02-28T06:11:57;24.80;;;10.47;;
19828;SDS011;10075;50.924;4.396;2023-02-28T06:14:24;19.27;;;10.10;;
19828;SDS011;10075;50.924;4.396;2023-02-28T06:16:51;23.73;;;9.50;;
19828;SDS011;10075;50.924;4.396;2023-02-28T06:19:18;21.83;;;9.40;;
19828;SDS011;10075;50.924;4.396;2023-02-28T06:21:48;17.40;;;9.43;;
19828;SDS011;10075;50.924;4.396;2023-02-28T06:24:18;28.00;;;10.03;;
19828;SDS011;10075;50.924;4.396;2023-02-28T06:26:45;20.07;;;9.67;;
19828;SDS011;10075;50.924;4.396;2023-02-28T06:29:13;13.43;;;8.57;;
19828;SDS011;10075;50.924;4.396;2023-02-28T06:31:42;12.90;;;8.73;;
19828;SDS011;10075;50.924;4.396;2023-02-28T06:34:09;13.80;;;8.37;;
19828;SDS011;10075;50.924;4.396;2023-02-28T06:36:36;11.83;;;9.80;;
19828;SDS011;10075;50.924;4.396;2023-02-28T06:39:03;14.83;;;8.73;;
19828;SDS011;10075;50.924;4.396;2023-02-28T06:41:33;19.63;;;9.30;;
19828;SDS011;10075;50.924;4.396;2023-02-28T06:44:02;22.80;;;9.50;;
19828;SDS011;10075;50.924;4.396;2023-02-28T06:46:30;12.43;;;8.70;;
19828;SDS011;10075;50.924;4.396;2023-02-28T06:48:58;15.17;;;8.67;;
19828;SDS011;10075;50.924;4.396;2023-02-28T06:51:25;14.90;;;8.57;;
19828;SDS011;10075;50.924;4.396;2023-02-28T06:53:52;11.43;;;8.17;;
19828;SDS011;10075;50.924;4.396;2023-02-28T06:56:19;19.77;;;8.10;;
19828;SDS011;10075;50.924;4.396;2023-02-28T06:58:48;14.67;;;8.73;;
19828;SDS011;10075;50.924;4.396;2023-02-28T07:01:17;26.07;;;9.13;;
19828;SDS011;10075;50.924;4.396;2023-02-28T07:03:45;19.87;;;8.77;;
19828;SDS011;10075;50.924;4.396;2023-02-28T07:06:17;15.63;;;8.37;;
19828;SDS011;10075;50.924;4.396;2023-02-28T07:08:44;21.87;;;9.30;;
19828;SDS011;10075;50.924;4.396;2023-02-28T07:11:11;17.07;;;8.17;;
19828;SDS011;10075;50.924;4.396;2023-02-28T07:13:38;16.33;;;8.03;;
19828;SDS011;10075;50.924;4.396;2023-02-28T07:16:07;15.33;;;8.60;;
19828;SDS011;10075;50.924;4.396;2023-02-28T07:18:36;16.43;;;8.27;;
19828;SDS011;10075;50.924;4.396;2023-02-28T07:21:04;12.30;;;8.20;;
19828;SDS011;10075;50.924;4.396;2023-02-28T07:23:32;14.50;;;8.67;;
19828;SDS011;10075;50.924;4.396;2023-02-28T07:26:00;15.90;;;7.77;;
19828;SDS011;10075;50.924;4.396;2023-02-28T07:28:28;14.53;;;7.73;;
19828;SDS011;10075;50.924;4.396;2023-02-28T07:30:55;17.93;;;8.27;;
19828;SDS011;10075;50.924;4.396;2023-02-28T07:33:23;15.43;;;8.43;;
19828;SDS011;10075;50.924;4.396;2023-02-28T07:35:50;17.27;;;8.90;;
19828;SDS011;10075;50.924;4.396;2023-02-28T07:38:17;14.13;;;8.33;;
19828;SDS011;10075;50.924;4.396;2023-02-28T07:40:44;19.00;;;7.43;;
19828;SDS011;10075;50.924;4.396;2023-02-28T07:43:11;18.83;;;8.20;;
19828;SDS011;10075;50.924;4.396;2023-02-28T07:45:38;12.30;;;7.30;;
19828;SDS011;10075;50.924;4.396;2023-02-28T07:48:05;10.83;;;7.50;;
19828;SDS011;10075;50.924;4.396;2023-02-28T07:50:36;11.90;;;7.67;;
19828;SDS011;10075;50.924;4.396;2023-02-28T07:53:03;12.67;;;7.13;;
19828;SDS011;10075;50.924;4.396;2023-02-28T07:55:30;15.77;;;6.93;;
19828;SDS011;10075;50.924;4.396;2023-02-28T07:57:57;15.90;;;7.27;;
19828;SDS011;10075;50.924;4.396;2023-02-28T08:00:24;15.33;;;6.97;;
19828;SDS011;10075;50.924;4.396;2023-02-28T08:02:51;20.00;;;8.07;;
19828;SDS011;10075;50.924;4.396;2023-02-28T08:05:18;23.07;;;7.00;;
19828;SDS011;10075;50.924;4.396;2023-02-28T08:07:48;19.93;;;7.37;;
19828;SDS011;10075;50.924;4.396;2023-02-28T08:10:15;21.20;;;6.80;;
19828;SDS011;10075;50.924;4.396;2023-02-28T08:12:42;14.67;;;6.93;;
19828;SDS011;10075;50.924;4.396;2023-02-28T08:15:09;10.77;;;5.40;;
19828;SDS011;10075;50.924;4.396;2023-02-28T08:17:36;14.40;;;5.83;;
19828;SDS011;10075;50.924;4.396;2023-02-28T08:20:04;12.23;;;5.33;;
19828;SDS011;10075;50.924;4.396;2023-02-28T08:22:32;11.17;;;4.70;;
19828;SDS011;10075;50.924;4.396;2023-02-28T08:25:00;8.40;;;4.50;;
19828;SDS011;10075;50.924;4.396;2023-02-28T08:27:27;13.20;;;4.27;;
19828;SDS011;10075;50.924;4.396;2023-02-28T08:29:54;14.23;;;5.03;;
19828;SDS011;10075;50.924;4.396;2023-02-28T08:32:21;13.03;;;4.63;;
19828;SDS011;10075;50.924;4.396;2023-02-28T08:34:48;9.63;;;4.77;;
19828;SDS011;10075;50.924;4.396;2023-02-28T08:37:15;6.10;;;3.80;;
19828;SDS011;10075;50.924;4.396;2023-02-28T08:39:42;8.07;;;4.07;;
19828;SDS011;10075;50.924;4.396;2023-02-28T08:42:10;6.60;;;3.47;;
19828;SDS011;10075;50.924;4.396;2023-02-28T08:44:37;6.70;;;4.00;;
19828;SDS011;10075;50.924;4.396;2023-02-28T08:47:05;8.10;;;3.80;;
19828;SDS011;10075;50.924;4.396;2023-02-28T08:49:32;5.87;;;3.33;;
19828;SDS011;10075;50.924;4.396;2023-02-28T08:51:59;6.57;;;2.87;;
19828;SDS011;10075;50.924;4.396;2023-02-28T08:54:26;5.80;;;2.90;;
19828;SDS011;10075;50.924;4.396;2023-02-28T08:56:56;6.03;;;2.87;;
19828;SDS011;10075;50.924;4.396;2023-02-28T08:59:24;6.33;;;3.10;;
19828;SDS011;10075;50.924;4.396;2023-02-28T09:01:51;6.00;;;3.40;;
19828;SDS011;10075;50.924;4.396;2023-02-28T09:04:18;4.30;;;2.87;;
19828;SDS011;10075;50.924;4.396;2023-02-28T09:06:45;6.03;;;3.07;;
19828;SDS011;10075;50.924;4.396;2023-02-28T09:09:13;3.97;;;2.93;;
19828;SDS011;10075;50.924;4.396;2023-02-28T09:11:40;6.73;;;3.07;;
19828;SDS011;10075;50.924;4.396;2023-02-28T09:14:07;4.77;;;3.43;;
19828;SDS011;10075;50.924;4.396;2023-02-28T09:16:36;6.53;;;3.10;;
19828;SDS011;10075;50.924;4.396;2023-02-28T09:19:03;9.70;;;3.40;;
19828;SDS011;10075;50.924;4.396;2023-02-28T09:21:30;8.13;;;3.77;;
19828;SDS011;10075;50.924;4.396;2023-02-28T09:23:57;5.37;;;3.47;;
19828;SDS011;10075;50.924;4.396;2023-02-28T09:26:24;4.43;;;2.60;;
19828;SDS011;10075;50.924;4.396;2023-02-28T09:28:53;6.67;;;3.07;;
19828;SDS011;10075;50.924;4.396;2023-02-28T09:31:21;7.17;;;2.90;;
19828;SDS011;10075;50.924;4.396;2023-02-28T09:33:51;6.47;;;3.00;;
19828;SDS011;10075;50.924;4.396;2023-02-28T09:36:19;5.60;;;3.13;;
19828;SDS011;10075;50.924;4.396;2023-02-28T09:38:47;8.93;;;3.20;;
19828;SDS011;10075;50.924;4.396;2023-02-28T09:41:17;4.60;;;2.60;;
19828;SDS011;10075;50.924;4.396;2023-02-28T09:43:46;4.50;;;2.50;;
19828;SDS011;10075;50.924;4.396;2023-02-28T09:49:06;2.90;;;2.40;;
19828;SDS011;10075;50.924;4.396;2023-02-28T09:51:44;3.47;;;2.47;;
19828;SDS011;10075;50.924;4.396;2023-02-28T09:54:17;3.30;;;2.40;;
19828;SDS011;10075;50.924;4.396;2023-02-28T09:56:46;4.23;;;2.53;;
19828;SDS011;10075;50.924;4.396;2023-02-28T09:59:21;7.20;;;2.70;;
19828;SDS011;10075;50.924;4.396;2023-02-28T10:02:00;5.47;;;3.17;;
19828;SDS011;10075;50.924;4.396;2023-02-28T10:04:40;6.00;;;2.73;;
19828;SDS011;10075;50.924;4.396;2023-02-28T10:07:19;3.40;;;2.30;;
19828;SDS011;10075;50.924;4.396;2023-02-28T10:10:04;3.43;;;2.70;;
19828;SDS011;10075;50.924;4.396;2023-02-28T10:12:40;6.23;;;2.67;;
19828;SDS011;10075;50.924;4.396;2023-02-28T10:15:13;7.17;;;2.63;;
19828;SDS011;10075;50.924;4.396;2023-02-28T10:17:42;4.10;;;2.53;;
19828;SDS011;10075;50.924;4.396;2023-02-28T10:20:14;5.10;;;2.60;;
19828;SDS011;10075;50.924;4.396;2023-02-28T10:22:50;4.10;;;2.60;;
19828;SDS011;10075;50.924;4.396;2023-02-28T10:25:23;5.20;;;2.80;;
19828;SDS011;10075;50.924;4.396;2023-02-28T10:27:52;3.70;;;2.27;;
19828;SDS011;10075;50.924;4.396;2023-02-28T10:30:23;5.87;;;2.50;;
19828;SDS011;10075;50.924;4.396;2023-02-28T10:32:51;4.20;;;2.97;;
19828;SDS011;10075;50.924;4.396;2023-02-28T10:35:21;3.83;;;2.53;;
19828;SDS011;10075;50.924;4.396;2023-02-28T10:37:50;5.17;;;2.47;;
19828;SDS011;10075;50.924;4.396;2023-02-28T10:40:29;6.67;;;2.30;;
19828;SDS011;10075;50.924;4.396;2023-02-28T10:43:00;6.60;;;2.50;;
19828;SDS011;10075;50.924;4.396;2023-02-28T10:45:28;3.53;;;2.37;;
19828;SDS011;10075;50.924;4.396;2023-02-28T10:47:57;3.40;;;1.87;;
19828;SDS011;10075;50.924;4.396;2023-02-28T10:50:28;2.23;;;1.70;;
19828;SDS011;10075;50.924;4.396;2023-02-28T10:53:05;5.13;;;2.07;;
19828;SDS011;10075;50.924;4.396;2023-02-28T10:55:42;1.87;;;1.60;;
19828;SDS011;10075;50.924;4.396;2023-02-28T10:58:20;3.70;;;1.73;;
19828;SDS011;10075;50.924;4.396;2023-02-28T11:00:48;3.97;;;1.60;;
19828;SDS011;10075;50.924;4.396;2023-02-28T11:03:24;3.53;;;1.70;;
19828;SDS011;10075;50.924;4.396;2023-02-28T11:05:57;4.63;;;2.03;;
19828;SDS011;10075;50.924;4.396;2023-02-28T11:08:25;5.23;;;1.90;;
19828;SDS011;10075;50.924;4.396;2023-02-28T11:10:56;3.67;;;1.67;;
19828;SDS011;10075;50.924;4.396;2023-02-28T11:13:26;2.47;;;1.70;;
19828;SDS011;10075;50.924;4.396;2023-02-28T11:15:55;3.60;;;1.63;;
19828;SDS011;10075;50.924;4.396;2023-02-28T11:18:26;2.80;;;1.63;;
19828;SDS011;10075;50.924;4.396;2023-02-28T11:20:58;3.50;;;2.30;;
19828;SDS011;10075;50.924;4.396;2023-02-28T11:23:27;3.03;;;1.93;;
19828;SDS011;10075;50.924;4.396;2023-02-28T11:25:56;2.90;;;1.93;;
19828;SDS011;10075;50.924;4.396;2023-02-28T11:28:27;2.53;;;1.87;;
19828;SDS011;10075;50.924;4.396;2023-02-28T11:31:01;3.93;;;2.20;;
19828;SDS011;10075;50.924;4.396;2023-02-28T11:33:31;3.83;;;1.97;;
19828;SDS011;10075;50.924;4.396;2023-02-28T11:36:11;2.90;;;2.03;;
19828;SDS011;10075;50.924;4.396;2023-02-28T11:38:39;3.23;;;1.93;;
19828;SDS011;10075;50.924;4.396;2023-02-28T11:41:11;4.40;;;2.40;;
19828;SDS011;10075;50.924;4.396;2023-02-28T11:43:51;4.70;;;2.13;;
19828;SDS011;10075;50.924;4.396;2023-02-28T11:46:29;2.93;;;1.97;;
19828;SDS011;10075;50.924;4.396;2023-02-28T11:49:02;3.63;;;2.23;;
19828;SDS011;10075;50.924;4.396;2023-02-28T11:51:46;3.73;;;2.07;;
19828;SDS011;10075;50.924;4.396;2023-02-28T11:54:23;3.70;;;2.03;;
19828;SDS011;10075;50.924;4.396;2023-02-28T11:56:57;3.60;;;2.17;;
19828;SDS011;10075;50.924;4.396;2023-02-28T11:59:31;3.63;;;2.03;;
19828;SDS011;10075;50.924;4.396;2023-02-28T12:05:12;4.97;;;2.30;;
19828;SDS011;10075;50.924;4.396;2023-02-28T12:07:49;2.67;;;2.10;;
19828;SDS011;10075;50.924;4.396;2023-02-28T12:10:23;3.70;;;1.90;;
19828;SDS011;10075;50.924;4.396;2023-02-28T12:18:53;3.53;;;2.10;;
19828;SDS011;10075;50.924;4.396;2023-02-28T12:21:31;2.97;;;2.23;;
19828;SDS011;10075;50.924;4.396;2023-02-28T12:24:19;4.53;;;2.87;;
19828;SDS011;10075;50.924;4.396;2023-02-28T12:27:05;4.47;;;2.50;;
19828;SDS011;10075;50.924;4.396;2023-02-28T12:29:38;4.47;;;2.10;;
19828;SDS011;10075;50.924;4.396;2023-02-28T12:32:11;4.37;;;2.20;;
19828;SDS011;10075;50.924;4.396;2023-02-28T12:34:43;2.90;;;2.00;;
19828;SDS011;10075;50.924;4.396;2023-02-28T12:37:14;2.97;;;2.20;;
19828;SDS011;10075;50.924;4.396;2023-02-28T12:39:48;2.67;;;2.33;;
19828;SDS011;10075;50.924;4.396;2023-02-28T12:42:22;2.80;;;1.93;;
19828;SDS011;10075;50.924;4.396;2023-02-28T12:44:52;3.60;;;2.20;;
19828;SDS011;10075;50.924;4.396;2023-02-28T12:47:23;2.90;;;2.00;;
19828;SDS011;10075;50.924;4.396;2023-02-28T12:49:51;4.97;;;2.17;;
19828;SDS011;10075;50.924;4.396;2023-02-28T12:52:23;5.70;;;1.90;;
19828;SDS011;10075;50.924;4.396;2023-02-28T12:54:56;3.20;;;2.13;;
19828;SDS011;10075;50.924;4.396;2023-02-28T12:57:31;3.47;;;2.23;;
19828;SDS011;10075;50.924;4.396;2023-02-28T13:00:03;4.23;;;2.27;;
19828;SDS011;10075;50.924;4.396;2023-02-28T13:02:53;12.27;;;2.97;;
19828;SDS011;10075;50.924;4.396;2023-02-28T13:05:32;13.97;;;2.43;;
19828;SDS011;10075;50.924;4.396;2023-02-28T13:08:37;3.70;;;2.10;;
19828;SDS011;10075;50.924;4.396;2023-02-28T13:11:25;6.10;;;2.40;;
19828;SDS011;10075;50.924;4.396;2023-02-28T13:13:59;2.50;;;2.00;;
19828;SDS011;10075;50.924;4.396;2023-02-28T13:16:28;4.93;;;2.07;;
19828;SDS011;10075;50.924;4.396;2023-02-28T13:19:30;3.37;;;2.30;;
19828;SDS011;10075;50.924;4.396;2023-02-28T13:21:59;3.90;;;2.27;;
19828;SDS011;10075;50.924;4.396;2023-02-28T13:24:42;2.87;;;2.20;;
19828;SDS011;10075;50.924;4.396;2023-02-28T13:33:23;2.80;;;1.97;;
19828;SDS011;10075;50.924;4.396;2023-02-28T13:36:08;2.63;;;2.10;;
19828;SDS011;10075;50.924;4.396;2023-02-28T13:38:38;3.93;;;1.93;;
19828;SDS011;10075;50.924;4.396;2023-02-28T13:44:11;3.43;;;2.40;;
19828;SDS011;10075;50.924;4.396;2023-02-28T13:49:46;5.57;;;2.80;;
19828;SDS011;10075;50.924;4.396;2023-02-28T13:52:15;2.67;;;2.10;;
19828;SDS011;10075;50.924;4.396;2023-02-28T13:54:51;3.80;;;2.83;;
19828;SDS011;10075;50.924;4.396;2023-02-28T13:57:43;4.50;;;2.20;;
19828;SDS011;10075;50.924;4.396;2023-02-28T14:00:23;6.47;;;2.17;;
19828;SDS011;10075;50.924;4.396;2023-02-28T14:03:13;3.53;;;2.40;;
19828;SDS011;10075;50.924;4.396;2023-02-28T14:05:53;2.63;;;2.10;;
19828;SDS011;10075;50.924;4.396;2023-02-28T14:08:36;7.07;;;2.20;;
19828;SDS011;10075;50.924;4.396;2023-02-28T14:11:04;3.10;;;1.97;;
19828;SDS011;10075;50.924;4.396;2023-02-28T14:13:39;5.00;;;2.33;;
19828;SDS011;10075;50.924;4.396;2023-02-28T14:16:13;5.00;;;2.20;;
19828;SDS011;10075;50.924;4.396;2023-02-28T14:18:41;3.50;;;2.60;;
19828;SDS011;10075;50.924;4.396;2023-02-28T14:21:19;5.60;;;2.67;;
19828;SDS011;10075;50.924;4.396;2023-02-28T14:27:08;2.97;;;2.33;;
19828;SDS011;10075;50.924;4.396;2023-02-28T14:32:54;4.23;;;2.63;;
19828;SDS011;10075;50.924;4.396;2023-02-28T14:35:45;3.60;;;2.43;;
19828;SDS011;10075;50.924;4.396;2023-02-28T14:38:22;4.27;;;2.40;;
19828;SDS011;10075;50.924;4.396;2023-02-28T14:40:53;3.23;;;2.50;;
19828;SDS011;10075;50.924;4.396;2023-02-28T14:43:23;6.00;;;2.57;;
19828;SDS011;10075;50.924;4.396;2023-02-28T14:45:52;7.37;;;2.90;;
19828;SDS011;10075;50.924;4.396;2023-02-28T14:48:23;4.47;;;2.93;;
19828;SDS011;10075;50.924;4.396;2023-02-28T14:50:52;4.93;;;2.70;;
19828;SDS011;10075;50.924;4.396;2023-02-28T14:53:21;6.80;;;2.90;;
19828;SDS011;10075;50.924;4.396;2023-02-28T14:55:51;6.40;;;3.00;;
19828;SDS011;10075;50.924;4.396;2023-02-28T14:58:22;4.33;;;2.53;;
19828;SDS011;10075;50.924;4.396;2023-02-28T15:00:52;4.87;;;3.07;;
19828;SDS011;10075;50.924;4.396;2023-02-28T15:03:20;5.00;;;2.93;;
19828;SDS011;10075;50.924;4.396;2023-02-28T15:05:53;5.53;;;3.40;;
19828;SDS011;10075;50.924;4.396;2023-02-28T15:08:22;4.73;;;2.90;;
19828;SDS011;10075;50.924;4.396;2023-02-28T15:10:51;3.97;;;2.60;;
19828;SDS011;10075;50.924;4.396;2023-02-28T15:13:20;4.47;;;2.70;;
19828;SDS011;10075;50.924;4.396;2023-02-28T15:15:50;5.20;;;3.07;;
19828;SDS011;10075;50.924;4.396;2023-02-28T15:18:26;6.63;;;2.83;;
19828;SDS011;10075;50.924;4.396;2023-02-28T15:21:00;3.73;;;2.60;;
19828;SDS011;10075;50.924;4.396;2023-02-28T15:23:31;4.93;;;2.97;;
19828;SDS011;10075;50.924;4.396;2023-02-28T15:25:59;3.97;;;2.70;;
19828;SDS011;10075;50.924;4.396;2023-02-28T15:28:27;5.83;;;2.80;;
19828;SDS011;10075;50.924;4.396;2023-02-28T15:30:56;4.73;;;2.80;;
19828;SDS011;10075;50.924;4.396;2023-02-28T15:33:25;3.27;;;2.63;;